Flight Track Log - Related Links

Times and Time Zones

All times are in EST time to prevent confusion due to time zone crossing. See the FIN666 flight status page for this flight to view local times or setup timezone preferences in your user account.

Time Position Orientation Groundspeed Altitude Reporting Facility
EST Latitude Longitude Course Direction KTS MPH feet Rate Location/Type
Sat 07:23:00 AM 55.8486 13.1329 49° Northeast  Level Estimated
Sat 07:24:00 AM 55.9251 13.2931 50° Northeast  Level Estimated
Sat 07:25:00 AM 56.0014 13.4539 50° Northeast  Level Estimated
Sat 07:26:00 AM 56.0774 13.6154 50° Northeast  Level Estimated
Sat 07:27:00 AM 56.1533 13.7775 50° Northeast  Level Estimated
Sat 07:28:00 AM 56.2289 13.9403 50° Northeast  Level Estimated
Sat 07:29:00 AM 56.3066 14.1087 50° Northeast  Level Estimated
Sat 07:30:00 AM 56.3841 14.2778 50° Northeast  Level Estimated
Sat 07:31:00 AM 56.4614 14.4475 50° Northeast  Level Estimated
Sat 07:32:00 AM 56.5384 14.6179 51° Northeast  Level Estimated
Sat 07:33:00 AM 56.6152 14.7891 51° Northeast  Level Estimated
Sat 07:34:00 AM 56.6917 14.9609 51° Northeast  Level Estimated
Sat 07:35:00 AM 56.7680 15.1334 51° Northeast  Level Estimated
Sat 07:36:00 AM 56.8441 15.3067 51° Northeast  Level Estimated
Sat 07:37:00 AM 56.9199 15.4806 51° Northeast  Level Estimated
Sat 07:38:00 AM 56.9955 15.6552 51° Northeast  Level Estimated
Sat 07:39:00 AM 57.0709 15.8306 52° Northeast  Level Estimated
Sat 07:40:00 AM 57.1460 16.0066 52° Northeast  Level Estimated
Sat 07:41:00 AM 57.2208 16.1834 52° Northeast  Level Estimated
Sat 07:42:00 AM 57.2954 16.3609 52° Northeast  Level Estimated
Sat 07:43:00 AM 57.3698 16.5391 52° Northeast  Level Estimated
Sat 07:44:00 AM 57.4439 16.7181 52° Northeast  Level Estimated
Sat 07:45:00 AM 57.5177 16.8977 53° Northeast  Level Estimated
Sat 07:46:00 AM 57.5913 17.0781 53° Northeast  Level Estimated
Sat 07:47:00 AM 57.6646 17.2592 53° Northeast  Level Estimated
Sat 07:48:00 AM 57.7377 17.4411 53° Northeast  Level Estimated
Sat 07:49:00 AM 57.8105 17.6237 53° Northeast  Level Estimated
Sat 07:50:00 AM 57.8830 17.8070 53° Northeast  Level Estimated
Sat 07:51:00 AM 57.9553 17.9911 53° Northeast  Level Estimated
Sat 07:52:00 AM 58.0273 18.1759 54° Northeast  Level Estimated
Sat 07:53:00 AM 58.0990 18.3614 54° Northeast  Level Estimated
Sat 07:54:00 AM 58.1705 18.5477 54° Northeast  Level Estimated
Sat 07:55:00 AM 58.2417 18.7348 54° Northeast  Level Estimated
Sat 07:56:00 AM 58.3126 18.9226 54° Northeast  Level Estimated
Sat 07:57:00 AM 58.3833 19.1111 54° Northeast  Level Estimated
Sat 07:58:00 AM 58.4537 19.3004 55° Northeast  Level Estimated
Sat 07:59:00 AM 58.5237 19.4905 55° Northeast  Level Estimated
Sat 08:00:00 AM 58.5936 19.6813 55° Northeast  Level Estimated
Sat 08:01:00 AM 58.6631 19.8729 55° Northeast  Level Estimated
Sat 08:02:00 AM 58.7323 20.0652 55° Northeast  Level Estimated
Sat 08:03:00 AM 58.8013 20.2583 55° Northeast  Level Estimated
Sat 08:04:00 AM 58.8699 20.4522 56° Northeast  Level Estimated
Sat 08:05:00 AM 58.9383 20.6469 56° Northeast  Level Estimated
Sat 08:06:00 AM 59.0064 20.8423 56° Northeast  Level Estimated
Sat 08:07:00 AM 59.0741 21.0385 56° Northeast  Level Estimated
Sat 08:08:00 AM 59.1416 21.2355 56° Northeast  Level Estimated
Sat 08:09:00 AM 59.2088 21.4332 56° Northeast  Level Estimated
Sat 08:10:00 AM 59.2757 21.6317 57° Northeast  Level Estimated
Sat 08:11:00 AM 59.3423 21.8310 57° Northeast  Level Estimated
Sat 08:12:00 AM 59.4085 22.0311 57° Northeast  Level Estimated
Sat 08:13:00 AM 59.4745 22.2320 57° Northeast  Level Estimated
Sat 08:14:00 AM 59.5402 22.4336 57° Northeast  Level Estimated
Sat 08:15:00 AM 59.6055 22.6360 57° Northeast  Level Estimated
Sat 08:16:00 AM 59.6705 22.8393 58° Northeast  Level Estimated
Sat 08:17:00 AM 59.7352 23.0433 58° Northeast  Level Estimated
Sat 08:18:00 AM 59.7996 23.2481 58° Northeast  Level Estimated
Sat 08:19:00 AM 59.8637 23.4537 58° Northeast  Level Estimated
Sat 08:20:00 AM 59.9275 23.6600 58° Northeast  Level Estimated
Sat 08:21:00 AM 59.9909 23.8672 58° Northeast  Level Estimated
Sat 08:22:00 AM 60.0540 24.0752 59° Northeast  Level Estimated
Sat 08:23:00 AM 60.1168 24.2840 59° Northeast  Level Estimated
Sat 08:24:00 AM 60.1793 24.4935 59° Northeast  Level Estimated
Sat 08:25:00 AM 60.2465 24.7211 59° Northeast  Level Estimated
Sat 08:26:00 AM 60.3133 24.9497 59° Northeast  Level Estimated
Sat 08:27:00 AM 60.3172 24.9633 60° Northeast  Level Estimated
Sat 08:28:00 AM 60.3172 24.9633 37° Northeast  Level Estimated
Sat 08:29:00 AM 60.3172 24.9633 37° Northeast  Level Estimated
Sat 08:30:00 AM 60.3172 24.9633 37° Northeast  Level Estimated
Sat 08:31:00 AM 60.3172 24.9633 37° Northeast  Level Estimated
Sat 08:32:00 AM 60.3172 24.9633 37° Northeast  Level Estimated
Sat 08:33:00 AM 60.3172 24.9633 37° Northeast  Level Estimated
Sat 08:34:00 AM 60.3172 24.9633 37° Northeast  Level Estimated
Sat 08:35:00 AM 60.3172 24.9633 37° Northeast  Level Estimated
Sat 08:36:00 AM 60.3172 24.9633 37° Northeast  Level Estimated
Sat 08:37:00 AM 60.3172 24.9633 37° Northeast  Level Estimated

Login

Don't have an account? Register now (free) for customized features, flight alerts, and more!